Time;durP1;ratioP1;P1;durP2;ratioP2;P2;SDS_P1;SDS_P2;PMS_P1;PMS_P2;Temp;Humidity;BMP_temperature;BMP_pressure;BME280_temperature;BME280_humidity;BME280_pressure;Samples;Min_cycle;Max_cycle;Signal;HPM_P1;HPM_P2
2022/08/05 00:01:19;;;;;;;18.40;13.20;;;;;;;;;;4902212;28;20242;-86
2022/08/05 00:03:50;;;;;;;20.42;13.60;;;;;;;;;;4942453;29;20275;-85
2022/08/05 00:06:16;;;;;;;24.35;15.18;;;;;;;;;;4928505;28;20313;-87
2022/08/05 00:08:41;;;;;;;19.55;13.43;;;;;;;;;;4897567;29;20286;-88
2022/08/05 00:11:09;;;;;;;25.20;13.68;;;;;;;;;;4902719;28;20223;-87
2022/08/05 00:13:37;;;;;;;18.60;14.45;;;;;;;;;;4914522;29;20237;-86
2022/08/05 00:16:03;;;;;;;23.40;14.82;;;;;;;;;;4924878;28;20258;-86
2022/08/05 00:18:31;;;;;;;24.77;15.43;;;;;;;;;;4910481;29;20325;-85
2022/08/05 00:20:59;;;;;;;25.98;16.20;;;;;;;;;;4900558;29;20226;-87
2022/08/05 00:23:24;;;;;;;19.42;15.27;;;;;;;;;;4889927;28;20226;-86
2022/08/05 00:25:50;;;;;;;19.83;14.85;;;;;;;;;;4937813;29;20252;-85
2022/08/05 00:28:21;;;;;;;21.35;15.48;;;;;;;;;;4944366;28;20254;-85
2022/08/05 00:30:46;;;;;;;19.30;14.88;;;;;;;;;;4924395;29;20234;-85
2022/08/05 00:33:12;;;;;;;19.40;15.48;;;;;;;;;;4926150;28;20234;-85
2022/08/05 00:35:37;;;;;;;19.52;15.10;;;;;;;;;;4915299;29;20232;-85
2022/08/05 00:38:03;;;;;;;18.67;15.18;;;;;;;;;;4923318;28;20235;-86
2022/08/05 00:40:32;;;;;;;18.38;15.55;;;;;;;;;;4936475;29;20286;-88
2022/08/05 00:43:01;;;;;;;20.10;14.85;;;;;;;;;;4923807;29;20254;-87
2022/08/05 00:45:27;;;;;;;21.70;14.35;;;;;;;;;;4906817;29;20223;-87
2022/08/05 00:47:55;;;;;;;20.77;15.00;;;;;;;;;;4915744;29;20887;-87
2022/08/05 00:50:23;;;;;;;18.27;14.25;;;;;;;;;;4920005;28;20237;-85
2022/08/05 00:52:49;;;;;;;16.27;13.80;;;;;;;;;;4934621;29;20241;-85
2022/08/05 00:55:17;;;;;;;15.63;13.13;;;;;;;;;;4921868;28;20238;-85
2022/08/05 00:57:45;;;;;;;17.48;12.65;;;;;;;;;;4936569;29;20234;-84
2022/08/05 01:00:15;;;;;;;19.13;12.27;;;;;;;;;;4951041;28;20227;-86
2022/08/05 01:02:41;;;;;;;15.20;12.18;;;;;;;;;;4921559;29;20231;-87
2022/08/05 01:05:06;;;;;;;16.45;11.00;;;;;;;;;;4916998;29;20258;-85
2022/08/05 01:07:32;;;;;;;13.25;11.18;;;;;;;;;;4934406;29;20279;-87
2022/08/05 01:10:00;;;;;;;11.48;9.77;;;;;;;;;;4951106;29;20223;-85
2022/08/05 01:12:28;;;;;;;15.15;10.27;;;;;;;;;;4913329;28;20256;-84
2022/08/05 01:15:05;;;;;;;12.80;9.65;;;;;;;;;;4941331;29;20231;-85
2022/08/05 01:17:42;;;;;;;17.02;10.43;;;;;;;;;;4921092;29;20234;-85
2022/08/05 01:20:30;;;;;;;16.85;10.05;;;;;;;;;;4923432;28;20258;-83
2022/08/05 01:23:26;;;;;;;13.52;9.15;;;;;;;;;;4938993;29;20227;-87
2022/08/05 01:25:51;;;;;;;12.10;10.00;;;;;;;;;;4974364;28;20273;-84
2022/08/05 01:28:17;;;;;;;10.65;8.98;;;;;;;;;;4955255;28;20219;-86
2022/08/05 01:31:22;;;;;;;13.00;8.38;;;;;;;;;;4942880;29;20226;-85
2022/08/05 01:33:53;;;;;;;15.23;9.60;;;;;;;;;;4955190;28;20234;-86
2022/08/05 01:36:18;;;;;;;10.35;8.45;;;;;;;;;;4925467;28;20227;-84
2022/08/05 01:38:47;;;;;;;9.57;8.15;;;;;;;;;;4935370;29;20257;-84
2022/08/05 01:41:13;;;;;;;9.65;8.27;;;;;;;;;;4902094;28;20242;-87
2022/08/05 01:43:38;;;;;;;11.60;7.93;;;;;;;;;;4934140;28;20299;-84
2022/08/05 01:46:09;;;;;;;14.20;7.50;;;;;;;;;;4929631;29;20583;-86
2022/08/05 01:48:37;;;;;;;9.80;6.60;;;;;;;;;;4910044;29;20728;-86
2022/08/05 01:51:02;;;;;;;11.02;6.85;;;;;;;;;;4892278;28;20720;-86
2022/08/05 01:53:28;;;;;;;7.50;6.00;;;;;;;;;;4906108;29;20289;-87
2022/08/05 01:55:55;;;;;;;10.75;6.30;;;;;;;;;;4920748;29;20258;-86
2022/08/05 01:58:25;;;;;;;11.32;6.10;;;;;;;;;;4936432;29;20302;-84
2022/08/05 02:00:50;;;;;;;6.47;5.75;;;;;;;;;;4897366;29;20239;-85
2022/08/05 02:03:18;;;;;;;9.95;5.53;;;;;;;;;;4936855;28;20234;-84
2022/08/05 02:05:44;;;;;;;9.73;5.82;;;;;;;;;;4938099;29;20229;-84
2022/08/05 02:08:13;;;;;;;6.60;5.60;;;;;;;;;;4905501;28;20236;-86
2022/08/05 02:10:41;;;;;;;6.35;5.07;;;;;;;;;;4909930;29;20233;-86
2022/08/05 02:13:12;;;;;;;6.90;4.88;;;;;;;;;;4908007;28;20235;-85
2022/08/05 02:15:46;;;;;;;8.40;4.85;;;;;;;;;;4957671;28;20235;-83
2022/08/05 02:18:32;;;;;;;10.32;5.05;;;;;;;;;;4921989;28;20298;-83
2022/08/05 02:21:09;;;;;;;6.55;4.97;;;;;;;;;;4921394;29;20237;-85
2022/08/05 02:23:40;;;;;;;9.57;5.25;;;;;;;;;;4915813;29;20225;-84
2022/08/05 02:26:09;;;;;;;8.45;4.72;;;;;;;;;;4939970;28;20223;-86
2022/08/05 02:28:40;;;;;;;16.35;5.50;;;;;;;;;;4904770;28;20229;-83
2022/08/05 02:31:16;;;;;;;7.60;5.20;;;;;;;;;;4922365;28;20230;-86
2022/08/05 02:33:49;;;;;;;8.10;5.30;;;;;;;;;;4925045;28;20240;-87
2022/08/05 02:36:16;;;;;;;7.43;5.63;;;;;;;;;;4901965;28;21156;-87
2022/08/05 02:38:44;;;;;;;8.15;6.05;;;;;;;;;;4896614;29;20369;-87
2022/08/05 02:41:10;;;;;;;9.02;7.03;;;;;;;;;;4918222;29;20227;-86
2022/08/05 02:43:37;;;;;;;9.55;7.22;;;;;;;;;;4907479;29;20229;-87
2022/08/05 02:46:03;;;;;;;13.73;7.90;;;;;;;;;;4926347;28;20230;-86
2022/08/05 02:48:29;;;;;;;13.68;8.07;;;;;;;;;;4925460;29;20242;-87
2022/08/05 02:50:54;;;;;;;12.20;8.25;;;;;;;;;;4913709;29;20238;-84
2022/08/05 02:53:22;;;;;;;9.48;8.57;;;;;;;;;;4901756;28;20222;-87
2022/08/05 02:55:51;;;;;;;8.07;7.28;;;;;;;;;;4915808;29;20282;-85
2022/08/05 02:58:20;;;;;;;9.27;7.30;;;;;;;;;;4925424;29;20234;-86
2022/08/05 03:00:48;;;;;;;11.00;7.90;;;;;;;;;;4919978;29;20269;-88
2022/08/05 03:03:17;;;;;;;9.35;7.68;;;;;;;;;;4901172;28;20239;-87
2022/08/05 03:05:43;;;;;;;11.23;6.53;;;;;;;;;;4938483;29;20270;-86
2022/08/05 03:08:09;;;;;;;7.53;6.70;;;;;;;;;;4927521;28;20234;-86
2022/08/05 03:10:34;;;;;;;9.75;6.68;;;;;;;;;;4906827;29;20234;-85
2022/08/05 03:13:10;;;;;;;8.40;7.55;;;;;;;;;;4917247;28;20235;-85
2022/08/05 03:15:36;;;;;;;11.35;8.20;;;;;;;;;;4936703;29;20326;-86
2022/08/05 03:18:04;;;;;;;8.40;7.60;;;;;;;;;;4934589;28;20700;-85
2022/08/05 03:20:34;;;;;;;9.48;7.70;;;;;;;;;;4934400;29;20290;-87
2022/08/05 03:22:59;;;;;;;12.13;8.13;;;;;;;;;;4938758;29;20688;-86
2022/08/05 03:25:25;;;;;;;10.63;8.20;;;;;;;;;;4914512;29;20238;-86
2022/08/05 03:27:51;;;;;;;9.30;7.88;;;;;;;;;;4922902;29;20728;-87
2022/08/05 03:30:19;;;;;;;11.23;9.02;;;;;;;;;;4899237;29;20228;-86
2022/08/05 03:32:45;;;;;;;11.25;8.60;;;;;;;;;;4949133;28;20226;-86
2022/08/05 03:35:11;;;;;;;10.23;8.80;;;;;;;;;;4940619;28;20579;-84
2022/08/05 03:37:37;;;;;;;9.65;8.63;;;;;;;;;;4925002;29;20231;-85
2022/08/05 03:40:07;;;;;;;16.17;8.55;;;;;;;;;;4935565;28;20644;-84
2022/08/05 03:42:33;;;;;;;9.40;8.35;;;;;;;;;;4933663;29;20281;-83
2022/08/05 03:45:01;;;;;;;13.05;9.15;;;;;;;;;;4922589;29;20230;-88
2022/08/05 03:47:27;;;;;;;9.38;8.50;;;;;;;;;;4939919;28;20223;-85
2022/08/05 03:49:52;;;;;;;9.50;7.57;;;;;;;;;;4925101;29;20278;-86
2022/08/05 03:52:29;;;;;;;10.70;7.72;;;;;;;;;;4935744;28;20219;-86
2022/08/05 03:54:57;;;;;;;11.85;7.72;;;;;;;;;;4909312;29;20233;-85
2022/08/05 03:57:28;;;;;;;9.48;7.45;;;;;;;;;;4910469;29;20598;-85
2022/08/05 04:00:12;;;;;;;8.88;7.43;;;;;;;;;;4906532;29;20290;-85
2022/08/05 04:02:45;;;;;;;9.88;7.50;;;;;;;;;;4902211;29;20254;-84
2022/08/05 04:05:11;;;;;;;10.27;8.07;;;;;;;;;;4934259;28;20238;-85
2022/08/05 04:07:40;;;;;;;8.18;7.38;;;;;;;;;;4918462;29;20326;-88
2022/08/05 04:10:05;;;;;;;9.38;7.85;;;;;;;;;;4900758;28;20866;-87
2022/08/05 04:12:32;;;;;;;12.05;8.15;;;;;;;;;;4921220;29;20253;-87
2022/08/05 04:14:58;;;;;;;10.15;7.93;;;;;;;;;;4939817;29;20239;-84
2022/08/05 04:17:23;;;;;;;8.98;7.97;;;;;;;;;;4906535;29;20688;-86
2022/08/05 04:19:49;;;;;;;7.97;7.18;;;;;;;;;;4922016;29;20231;-87
2022/08/05 04:22:14;;;;;;;9.05;8.15;;;;;;;;;;4909063;29;20235;-85
2022/08/05 04:24:41;;;;;;;13.68;8.38;;;;;;;;;;4941843;29;20250;-84
2022/08/05 04:27:07;;;;;;;9.68;8.68;;;;;;;;;;4885377;29;20315;-87
2022/08/05 04:29:32;;;;;;;11.40;8.73;;;;;;;;;;4904773;29;20720;-86
2022/08/05 04:32:00;;;;;;;10.00;8.75;;;;;;;;;;4914579;29;20219;-86
2022/08/05 04:34:26;;;;;;;10.23;8.82;;;;;;;;;;4896910;28;20233;-86
2022/08/05 04:36:51;;;;;;;10.40;9.35;;;;;;;;;;4906336;29;20222;-85
2022/08/05 04:39:20;;;;;;;10.35;9.23;;;;;;;;;;4917101;29;20239;-87
2022/08/05 04:41:45;;;;;;;10.85;9.48;;;;;;;;;;4913505;29;20219;-86
2022/08/05 04:44:11;;;;;;;9.95;9.05;;;;;;;;;;4921183;29;20302;-87
2022/08/05 04:46:37;;;;;;;9.40;8.40;;;;;;;;;;4898146;29;20239;-87
2022/08/05 04:49:05;;;;;;;9.63;8.70;;;;;;;;;;4934689;28;20234;-85
2022/08/05 04:51:31;;;;;;;8.80;8.00;;;;;;;;;;4917359;29;20231;-87
2022/08/05 04:53:57;;;;;;;11.98;8.10;;;;;;;;;;4907051;29;20242;-86
2022/08/05 04:56:25;;;;;;;10.07;7.90;;;;;;;;;;4919195;28;20215;-84
2022/08/05 04:58:50;;;;;;;11.93;8.20;;;;;;;;;;4935083;29;20227;-84
2022/08/05 05:01:16;;;;;;;8.68;7.80;;;;;;;;;;4935329;28;20297;-83
2022/08/05 05:03:44;;;;;;;8.93;8.02;;;;;;;;;;4897632;28;20229;-84
2022/08/05 05:06:10;;;;;;;12.43;7.78;;;;;;;;;;4895502;29;20219;-84
2022/08/05 05:08:36;;;;;;;9.95;7.40;;;;;;;;;;4938345;29;20746;-83
2022/08/05 05:11:04;;;;;;;14.57;7.95;;;;;;;;;;4938209;29;20235;-86
2022/08/05 05:13:30;;;;;;;12.20;8.20;;;;;;;;;;4896962;29;20218;-87
2022/08/05 05:15:55;;;;;;;8.68;7.45;;;;;;;;;;4921735;29;20227;-85
2022/08/05 05:18:21;;;;;;;8.18;7.38;;;;;;;;;;4905408;29;20215;-85
2022/08/05 05:20:46;;;;;;;7.78;7.03;;;;;;;;;;4921042;29;20222;-85
2022/08/05 05:23:15;;;;;;;8.77;7.88;;;;;;;;;;4901432;29;20759;-86
2022/08/05 05:25:46;;;;;;;8.38;7.60;;;;;;;;;;4905330;29;20291;-85
2022/08/05 05:28:16;;;;;;;7.55;6.85;;;;;;;;;;4916385;29;20582;-85
2022/08/05 05:30:42;;;;;;;8.48;7.05;;;;;;;;;;4917063;29;20231;-84
2022/08/05 05:33:07;;;;;;;7.70;7.00;;;;;;;;;;4916302;28;20325;-85
2022/08/05 05:35:35;;;;;;;16.48;7.30;;;;;;;;;;4925034;29;20222;-85
2022/08/05 05:38:05;;;;;;;9.95;6.50;;;;;;;;;;4907779;29;20241;-85
2022/08/05 05:40:30;;;;;;;7.30;5.65;;;;;;;;;;4909849;29;20312;-85
2022/08/05 05:42:56;;;;;;;6.97;6.30;;;;;;;;;;4907573;29;20224;-86
2022/08/05 05:45:24;;;;;;;7.65;6.95;;;;;;;;;;4922079;28;20218;-86
2022/08/05 05:47:54;;;;;;;7.15;6.32;;;;;;;;;;4907028;28;20237;-85
2022/08/05 05:50:20;;;;;;;9.25;6.82;;;;;;;;;;4917754;29;20237;-84
2022/08/05 05:52:46;;;;;;;9.55;7.97;;;;;;;;;;4920489;29;20222;-85
2022/08/05 05:55:12;;;;;;;9.07;8.13;;;;;;;;;;4931946;28;20235;-85
2022/08/05 05:57:39;;;;;;;9.68;8.05;;;;;;;;;;4922449;29;20251;-85
2022/08/05 06:00:06;;;;;;;9.48;7.72;;;;;;;;;;4916710;29;20227;-85
2022/08/05 06:02:37;;;;;;;12.13;8.30;;;;;;;;;;4908931;29;20605;-85
2022/08/05 06:05:06;;;;;;;9.18;8.18;;;;;;;;;;4907522;29;20238;-85
2022/08/05 06:07:31;;;;;;;10.45;8.60;;;;;;;;;;4916027;29;20219;-84
2022/08/05 06:09:57;;;;;;;9.43;8.52;;;;;;;;;;4936608;29;20231;-85
2022/08/05 06:12:25;;;;;;;9.68;8.20;;;;;;;;;;4913111;29;20231;-84
2022/08/05 06:14:50;;;;;;;12.80;8.10;;;;;;;;;;4925982;29;20235;-85
2022/08/05 06:17:19;;;;;;;8.48;7.50;;;;;;;;;;4923588;28;20234;-83
2022/08/05 06:19:44;;;;;;;8.43;7.53;;;;;;;;;;4942955;29;20230;-85
2022/08/05 06:22:10;;;;;;;9.48;7.95;;;;;;;;;;4931107;28;20716;-85
2022/08/05 06:24:40;;;;;;;8.40;6.90;;;;;;;;;;4926934;29;20226;-85
2022/08/05 06:27:07;;;;;;;9.30;7.28;;;;;;;;;;4945240;28;20226;-86
2022/08/05 06:29:35;;;;;;;8.57;7.00;;;;;;;;;;4890253;29;20224;-86
2022/08/05 06:32:03;;;;;;;8.57;6.97;;;;;;;;;;4937606;28;20238;-84
2022/08/05 06:34:29;;;;;;;7.68;6.97;;;;;;;;;;4924022;29;20231;-85
2022/08/05 06:36:56;;;;;;;8.10;7.30;;;;;;;;;;4909529;29;20270;-86
2022/08/05 06:39:22;;;;;;;8.68;7.63;;;;;;;;;;4922580;28;20227;-85
2022/08/05 06:41:48;;;;;;;7.90;7.13;;;;;;;;;;4937132;29;20234;-84
2022/08/05 06:44:14;;;;;;;9.60;7.13;;;;;;;;;;4918356;29;20230;-84
2022/08/05 06:46:39;;;;;;;8.80;6.70;;;;;;;;;;4920445;29;20249;-85
2022/08/05 06:49:05;;;;;;;8.98;7.70;;;;;;;;;;4931364;29;20294;-84
2022/08/05 06:51:30;;;;;;;10.43;7.60;;;;;;;;;;4902305;29;20234;-84
2022/08/05 06:53:58;;;;;;;8.38;7.53;;;;;;;;;;4907793;28;20242;-85
2022/08/05 06:56:27;;;;;;;11.75;7.75;;;;;;;;;;4922465;29;20302;-85
2022/08/05 06:58:53;;;;;;;10.55;8.25;;;;;;;;;;4915125;29;20231;-84
2022/08/05 07:01:20;;;;;;;9.07;8.18;;;;;;;;;;4932442;29;20696;-83
2022/08/05 07:03:46;;;;;;;8.32;7.50;;;;;;;;;;4923993;29;20638;-84
2022/08/05 07:06:11;;;;;;;9.15;7.93;;;;;;;;;;4940368;28;20229;-84
2022/08/05 07:08:40;;;;;;;10.80;8.63;;;;;;;;;;4909220;29;20241;-85
2022/08/05 07:11:11;;;;;;;8.90;8.10;;;;;;;;;;4923335;29;20314;-85
2022/08/05 07:19:10;;;;;;;10.15;8.20;;;;;;;;;;4943069;28;20264;-85
2022/08/05 07:21:36;;;;;;;10.27;9.07;;;;;;;;;;4925628;29;20242;-86
2022/08/05 07:24:02;;;;;;;10.55;8.57;;;;;;;;;;4919903;29;20242;-85
2022/08/05 07:26:30;;;;;;;9.25;8.40;;;;;;;;;;4926391;29;20536;-83
2022/08/05 07:28:55;;;;;;;9.32;8.48;;;;;;;;;;4942455;29;20275;-86
2022/08/05 07:31:21;;;;;;;9.77;8.82;;;;;;;;;;4906475;28;20285;-85
2022/08/05 07:33:49;;;;;;;11.88;9.35;;;;;;;;;;4924870;28;20720;-85
2022/08/05 07:36:17;;;;;;;12.43;9.48;;;;;;;;;;4929532;29;20230;-87
2022/08/05 07:38:42;;;;;;;10.85;9.63;;;;;;;;;;4927384;29;20598;-86
2022/08/05 07:41:09;;;;;;;11.18;9.98;;;;;;;;;;4941870;28;20227;-86
2022/08/05 07:43:34;;;;;;;13.40;9.90;;;;;;;;;;4901316;29;20223;-86
2022/08/05 07:46:00;;;;;;;10.77;9.77;;;;;;;;;;4898288;29;20560;-85
2022/08/05 07:48:25;;;;;;;13.55;10.57;;;;;;;;;;4922751;29;20227;-86
2022/08/05 07:50:51;;;;;;;12.35;10.73;;;;;;;;;;4935744;28;20232;-86
2022/08/05 07:53:16;;;;;;;11.60;10.65;;;;;;;;;;4909384;28;20618;-86
2022/08/05 07:55:42;;;;;;;14.65;10.43;;;;;;;;;;4937669;29;20331;-84
2022/08/05 07:58:10;;;;;;;11.50;10.60;;;;;;;;;;4918086;28;20291;-85
2022/08/05 08:00:35;;;;;;;11.15;9.45;;;;;;;;;;4905627;29;20267;-84
2022/08/05 08:03:05;;;;;;;12.73;10.43;;;;;;;;;;4930778;28;20226;-85
2022/08/05 08:05:31;;;;;;;12.13;10.88;;;;;;;;;;4936379;29;20246;-84
2022/08/05 08:07:59;;;;;;;11.75;10.55;;;;;;;;;;4899798;29;20302;-85
2022/08/05 08:10:27;;;;;;;11.68;10.20;;;;;;;;;;4898896;29;20237;-85
2022/08/05 08:12:54;;;;;;;11.50;10.10;;;;;;;;;;4907701;29;20588;-85
2022/08/05 08:15:20;;;;;;;11.05;9.93;;;;;;;;;;4922327;28;20230;-85
2022/08/05 08:17:45;;;;;;;11.70;10.60;;;;;;;;;;4911298;29;20237;-85
2022/08/05 08:20:13;;;;;;;12.43;11.18;;;;;;;;;;4909739;29;20234;-85
2022/08/05 08:22:39;;;;;;;12.18;10.52;;;;;;;;;;4924406;29;20281;-84
2022/08/05 08:25:05;;;;;;;13.43;11.95;;;;;;;;;;4912682;28;20231;-85
2022/08/05 08:27:31;;;;;;;11.90;10.73;;;;;;;;;;4928571;29;20234;-84
2022/08/05 08:29:56;;;;;;;13.23;11.93;;;;;;;;;;4922274;29;20234;-85
2022/08/05 08:32:22;;;;;;;13.55;12.15;;;;;;;;;;4908669;28;20230;-84
2022/08/05 08:34:48;;;;;;;13.45;12.18;;;;;;;;;;4923562;29;20219;-84
2022/08/05 08:37:13;;;;;;;13.18;11.88;;;;;;;;;;4909874;29;20223;-84
2022/08/05 08:39:39;;;;;;;12.00;10.80;;;;;;;;;;4944385;28;20229;-85
2022/08/05 08:42:05;;;;;;;11.82;10.85;;;;;;;;;;4915099;28;20222;-85
2022/08/05 08:44:31;;;;;;;11.13;10.07;;;;;;;;;;4921280;29;20227;-83
2022/08/05 08:46:57;;;;;;;10.43;9.52;;;;;;;;;;4941278;29;20290;-85
2022/08/05 08:49:23;;;;;;;9.55;8.65;;;;;;;;;;4896666;29;20227;-83
2022/08/05 08:51:56;;;;;;;9.88;8.98;;;;;;;;;;4925630;29;20231;-84
2022/08/05 08:54:21;;;;;;;10.95;9.95;;;;;;;;;;4905723;29;20235;-85
2022/08/05 08:56:52;;;;;;;11.18;10.10;;;;;;;;;;4936426;29;20410;-84
2022/08/05 08:59:19;;;;;;;12.70;9.13;;;;;;;;;;4923986;29;20219;-85
2022/08/05 09:01:45;;;;;;;8.45;7.65;;;;;;;;;;4925016;29;20730;-85
2022/08/05 09:04:12;;;;;;;8.52;7.72;;;;;;;;;;4924038;28;20254;-85
2022/08/05 09:06:42;;;;;;;13.38;8.65;;;;;;;;;;4948759;29;20295;-83
2022/08/05 09:09:10;;;;;;;10.27;8.80;;;;;;;;;;4931173;29;20262;-85
2022/08/05 09:11:36;;;;;;;9.55;8.65;;;;;;;;;;4921877;29;20658;-84
2022/08/05 09:14:01;;;;;;;9.98;9.02;;;;;;;;;;4934795;29;20220;-85
2022/08/05 09:16:27;;;;;;;10.23;9.10;;;;;;;;;;4897102;29;20672;-84
2022/08/05 09:18:53;;;;;;;10.45;9.13;;;;;;;;;;4921378;29;20235;-83
2022/08/05 09:21:27;;;;;;;9.60;8.80;;;;;;;;;;4906141;28;20222;-84
2022/08/05 09:24:08;;;;;;;10.13;9.27;;;;;;;;;;4919714;28;20234;-83
2022/08/05 09:26:35;;;;;;;8.98;8.20;;;;;;;;;;4910816;29;20274;-86
2022/08/05 09:29:03;;;;;;;9.38;8.57;;;;;;;;;;4909069;29;20284;-85
2022/08/05 09:31:29;;;;;;;9.18;8.38;;;;;;;;;;4903263;29;20441;-83
2022/08/05 09:34:10;;;;;;;12.00;8.00;;;;;;;;;;4914668;28;20242;-77
2022/08/05 09:36:45;;;;;;;8.10;7.35;;;;;;;;;;4932795;28;20226;-78
2022/08/05 09:39:11;;;;;;;12.00;8.07;;;;;;;;;;4950013;28;20218;-77
2022/08/05 09:41:59;;;;;;;10.18;7.40;;;;;;;;;;4920290;29;20275;-79
2022/08/05 09:44:37;;;;;;;8.18;6.80;;;;;;;;;;4952165;28;20261;-80
2022/08/05 09:47:16;;;;;;;7.40;6.70;;;;;;;;;;4902309;28;20234;-79
2022/08/05 09:49:49;;;;;;;7.18;6.50;;;;;;;;;;4920194;29;20582;-78
2022/08/05 09:52:17;;;;;;;9.25;6.90;;;;;;;;;;4927396;28;20234;-78
2022/08/05 09:55:02;;;;;;;7.18;6.40;;;;;;;;;;4951257;28;20231;-79
2022/08/05 09:57:35;;;;;;;7.10;6.18;;;;;;;;;;4910222;29;20226;-79
2022/08/05 10:00:08;;;;;;;7.57;6.93;;;;;;;;;;4935643;29;20241;-76
2022/08/05 10:02:37;;;;;;;8.88;6.82;;;;;;;;;;4938326;29;20219;-79
2022/08/05 10:05:05;;;;;;;8.52;7.30;;;;;;;;;;4918685;28;20578;-77
2022/08/05 10:07:51;;;;;;;8.90;8.00;;;;;;;;;;4937018;29;20214;-80
2022/08/05 10:10:20;;;;;;;7.60;6.90;;;;;;;;;;4940272;28;20281;-77
2022/08/05 10:12:52;;;;;;;6.38;5.80;;;;;;;;;;4934673;29;20219;-80
2022/08/05 10:15:24;;;;;;;6.88;5.10;;;;;;;;;;4899369;28;20226;-77
2022/08/05 10:18:09;;;;;;;5.32;4.82;;;;;;;;;;4948279;29;20404;-79
2022/08/05 10:20:42;;;;;;;5.85;4.88;;;;;;;;;;4932163;29;20294;-78
2022/08/05 10:23:22;;;;;;;5.88;5.13;;;;;;;;;;4931390;28;20313;-79
2022/08/05 10:25:47;;;;;;;6.10;5.50;;;;;;;;;;4903532;29;20223;-79
2022/08/05 10:28:13;;;;;;;6.07;5.10;;;;;;;;;;4880824;28;20242;-79
2022/08/05 10:30:39;;;;;;;6.10;5.53;;;;;;;;;;4911321;28;20247;-80
2022/08/05 10:33:04;;;;;;;5.55;5.00;;;;;;;;;;4923682;28;20281;-84
2022/08/05 10:35:33;;;;;;;8.52;5.88;;;;;;;;;;4945426;29;20598;-81
2022/08/05 10:37:59;;;;;;;6.93;6.00;;;;;;;;;;4953091;29;20215;-83
2022/08/05 10:40:48;;;;;;;6.18;5.68;;;;;;;;;;4936979;28;20231;-82
2022/08/05 10:43:19;;;;;;;7.22;6.35;;;;;;;;;;4938498;28;20249;-82
2022/08/05 10:45:55;;;;;;;7.00;5.70;;;;;;;;;;4916274;28;20247;-83
2022/08/05 10:48:39;;;;;;;6.65;5.97;;;;;;;;;;4927600;28;20226;-82
2022/08/05 10:51:15;;;;;;;6.35;5.75;;;;;;;;;;4950918;28;20335;-85
2022/08/05 10:53:42;;;;;;;5.85;5.43;;;;;;;;;;4926175;28;20227;-81
2022/08/05 11:06:12;;;;;;;7.05;5.47;;;;;;;;;;4928280;28;20230;-75
2022/08/05 11:08:38;;;;;;;6.13;5.30;;;;;;;;;;4928163;29;20235;-74
2022/08/05 11:11:32;;;;;;;6.32;5.20;;;;;;;;;;4931040;29;20230;-75
2022/08/05 11:13:58;;;;;;;3.83;3.47;;;;;;;;;;4930272;29;20324;-76
2022/08/05 11:16:25;;;;;;;4.65;4.25;;;;;;;;;;4887286;29;20310;-77
2022/08/05 11:19:41;;;;;;;5.53;4.68;;;;;;;;;;4935445;29;20254;-79
2022/08/05 11:22:47;;;;;;;5.82;4.75;;;;;;;;;;4913910;29;20235;-76
2022/08/05 11:25:42;;;;;;;5.90;5.05;;;;;;;;;;4909213;29;20227;-76
2022/08/05 11:28:13;;;;;;;6.97;5.32;;;;;;;;;;4924518;29;20322;-75
2022/08/05 11:30:56;;;;;;;6.63;5.55;;;;;;;;;;4932959;29;20237;-75
2022/08/05 11:33:28;;;;;;;6.50;5.63;;;;;;;;;;4914335;29;20620;-75
2022/08/05 11:35:54;;;;;;;7.78;6.32;;;;;;;;;;4915399;29;20967;-75
2022/08/05 11:38:41;;;;;;;8.13;6.88;;;;;;;;;;4914250;29;20790;-76
2022/08/05 11:41:13;;;;;;;7.50;6.90;;;;;;;;;;4907510;29;20235;-74
2022/08/05 11:43:54;;;;;;;7.80;7.20;;;;;;;;;;4915576;29;20637;-73
2022/08/05 11:46:30;;;;;;;10.23;7.75;;;;;;;;;;4914131;29;20662;-74
2022/08/05 11:48:55;;;;;;;8.70;7.85;;;;;;;;;;4870054;29;20610;-75
2022/08/05 11:51:26;;;;;;;8.73;7.93;;;;;;;;;;4894846;29;20223;-74
2022/08/05 11:53:52;;;;;;;9.05;8.15;;;;;;;;;;4883626;29;20698;-73
2022/08/05 11:56:18;;;;;;;9.30;8.25;;;;;;;;;;4878740;29;20247;-77
2022/08/05 11:58:44;;;;;;;10.50;8.50;;;;;;;;;;4909166;29;20242;-74
2022/08/05 12:01:13;;;;;;;10.35;8.10;;;;;;;;;;4881006;29;20686;-74
2022/08/05 12:03:45;;;;;;;7.25;6.55;;;;;;;;;;4905144;29;20231;-74
2022/08/05 12:06:14;;;;;;;7.75;6.90;;;;;;;;;;4906147;29;20247;-75
2022/08/05 12:08:40;;;;;;;8.20;7.40;;;;;;;;;;4889598;29;20742;-76
2022/08/05 12:11:06;;;;;;;7.47;6.78;;;;;;;;;;4907567;29;20235;-75
2022/08/05 12:13:33;;;;;;;6.60;6.10;;;;;;;;;;4887290;29;20302;-76
2022/08/05 12:16:00;;;;;;;8.25;6.57;;;;;;;;;;4889822;29;20227;-75
2022/08/05 12:18:38;;;;;;;6.93;6.22;;;;;;;;;;4896358;29;20258;-75
2022/08/05 12:21:16;;;;;;;6.03;5.53;;;;;;;;;;4922458;28;20326;-75
2022/08/05 12:23:53;;;;;;;5.75;5.35;;;;;;;;;;4911370;29;20697;-76
2022/08/05 12:26:21;;;;;;;7.00;5.93;;;;;;;;;;4891352;29;20242;-76
2022/08/05 12:28:48;;;;;;;7.43;5.85;;;;;;;;;;4898933;29;20223;-77
2022/08/05 12:31:16;;;;;;;6.03;5.53;;;;;;;;;;4912379;29;20656;-75
2022/08/05 12:33:43;;;;;;;6.63;5.80;;;;;;;;;;4869988;29;20283;-75
2022/08/05 12:36:09;;;;;;;7.25;5.32;;;;;;;;;;4883101;29;20737;-76
2022/08/05 12:38:36;;;;;;;5.93;5.20;;;;;;;;;;4887450;29;20251;-75
2022/08/05 12:41:02;;;;;;;6.38;5.10;;;;;;;;;;4889961;29;20370;-75
2022/08/05 12:43:30;;;;;;;4.90;4.40;;;;;;;;;;4897264;29;20254;-76
2022/08/05 12:45:55;;;;;;;6.45;4.10;;;;;;;;;;4906827;29;20251;-76
2022/08/05 12:48:23;;;;;;;4.78;4.30;;;;;;;;;;4915721;29;20228;-76
2022/08/05 12:51:11;;;;;;;5.15;4.75;;;;;;;;;;4912487;29;20222;-76
2022/08/05 12:53:41;;;;;;;5.20;4.75;;;;;;;;;;4894602;29;20645;-76
2022/08/05 12:56:25;;;;;;;5.28;4.88;;;;;;;;;;4902258;29;20299;-76
2022/08/05 12:59:12;;;;;;;6.15;5.38;;;;;;;;;;4892803;29;20744;-76
2022/08/05 13:01:41;;;;;;;7.60;5.32;;;;;;;;;;4928042;29;20253;-76
2022/08/05 13:04:06;;;;;;;5.45;5.00;;;;;;;;;;4885104;29;20227;-77
2022/08/05 13:06:34;;;;;;;5.32;4.90;;;;;;;;;;4896239;29;20219;-76
2022/08/05 13:09:07;;;;;;;5.63;5.10;;;;;;;;;;4915714;29;20287;-75
2022/08/05 13:11:36;;;;;;;5.57;4.97;;;;;;;;;;4921279;29;20605;-75
2022/08/05 13:14:02;;;;;;;5.30;4.80;;;;;;;;;;4927295;29;20224;-74
2022/08/05 13:16:27;;;;;;;5.55;5.05;;;;;;;;;;4894413;29;20713;-78
2022/08/05 13:18:55;;;;;;;5.32;4.53;;;;;;;;;;4912469;29;20308;-77
2022/08/05 13:21:21;;;;;;;4.53;4.13;;;;;;;;;;4898887;29;20251;-75
2022/08/05 13:23:47;;;;;;;4.63;4.03;;;;;;;;;;4914373;29;20270;-76
2022/08/05 13:26:13;;;;;;;7.28;6.22;;;;;;;;;;4893243;29;20792;-76
2022/08/05 13:28:46;;;;;;;4.70;4.30;;;;;;;;;;4885626;29;20231;-79
2022/08/05 13:31:14;;;;;;;6.38;3.83;;;;;;;;;;4932139;29;20223;-80
2022/08/05 13:33:41;;;;;;;4.07;3.78;;;;;;;;;;4938279;29;20231;-78
2022/08/05 13:36:06;;;;;;;3.45;3.15;;;;;;;;;;4924923;29;20243;-78
2022/08/05 13:38:34;;;;;;;4.50;3.30;;;;;;;;;;4900737;29;20234;-79
2022/08/05 13:41:00;;;;;;;4.95;4.18;;;;;;;;;;4899110;29;20219;-78
2022/08/05 13:43:25;;;;;;;4.05;3.15;;;;;;;;;;4916374;29;20720;-78
2022/08/05 13:45:55;;;;;;;3.10;2.70;;;;;;;;;;4932801;29;20230;-78
2022/08/05 13:48:21;;;;;;;4.25;2.40;;;;;;;;;;4915507;29;20294;-78
2022/08/05 13:50:46;;;;;;;2.92;2.70;;;;;;;;;;4930989;29;20227;-77
2022/08/05 13:53:14;;;;;;;2.88;2.67;;;;;;;;;;4926206;29;20310;-78
2022/08/05 13:55:39;;;;;;;3.22;3.03;;;;;;;;;;4933133;29;20212;-79
2022/08/05 13:58:05;;;;;;;3.38;3.08;;;;;;;;;;4903345;29;20760;-79
2022/08/05 14:00:30;;;;;;;3.20;2.80;;;;;;;;;;4899684;29;20231;-78
2022/08/05 14:02:56;;;;;;;2.80;2.60;;;;;;;;;;4913347;29;20265;-78
2022/08/05 14:05:22;;;;;;;2.60;2.40;;;;;;;;;;4912044;29;20227;-80
2022/08/05 14:07:47;;;;;;;3.78;2.72;;;;;;;;;;4925216;29;20220;-79
2022/08/05 14:10:14;;;;;;;3.03;2.72;;;;;;;;;;4870164;29;20219;-80
2022/08/05 14:12:40;;;;;;;3.55;2.60;;;;;;;;;;4860328;29;20219;-80
2022/08/05 14:15:07;;;;;;;3.15;2.85;;;;;;;;;;4877208;29;20227;-78
2022/08/05 14:17:33;;;;;;;3.35;2.67;;;;;;;;;;4862088;29;20730;-79
2022/08/05 14:20:00;;;;;;;2.58;2.38;;;;;;;;;;4908442;29;20227;-79
2022/08/05 14:22:28;;;;;;;3.33;3.00;;;;;;;;;;4923032;29;20227;-78
2022/08/05 14:24:54;;;;;;;3.15;2.90;;;;;;;;;;4882000;29;20219;-78
2022/08/05 14:27:19;;;;;;;3.90;3.47;;;;;;;;;;4905672;29;20711;-78
2022/08/05 14:29:45;;;;;;;5.55;3.60;;;;;;;;;;4924691;29;20811;-79
2022/08/05 14:32:13;;;;;;;5.03;3.40;;;;;;;;;;4893416;29;20219;-78
2022/08/05 14:34:41;;;;;;;3.45;3.10;;;;;;;;;;4906820;29;20821;-78
2022/08/05 14:37:07;;;;;;;3.30;3.00;;;;;;;;;;4903004;29;20282;-80
2022/08/05 14:39:32;;;;;;;3.45;3.13;;;;;;;;;;4882106;29;20291;-81
2022/08/05 14:41:59;;;;;;;3.25;2.95;;;;;;;;;;4928460;29;20227;-77
2022/08/05 14:44:27;;;;;;;5.97;3.17;;;;;;;;;;4929495;29;20223;-79
2022/08/05 14:46:53;;;;;;;3.33;3.03;;;;;;;;;;4883074;29;20283;-79
2022/08/05 14:49:18;;;;;;;4.28;3.25;;;;;;;;;;4881940;29;20314;-77
2022/08/05 14:51:44;;;;;;;3.75;3.00;;;;;;;;;;4920739;29;20234;-79
2022/08/05 14:54:12;;;;;;;5.43;2.97;;;;;;;;;;4931761;29;20220;-79
2022/08/05 14:56:41;;;;;;;2.97;2.72;;;;;;;;;;4905389;28;20298;-78
2022/08/05 14:59:10;;;;;;;3.45;3.15;;;;;;;;;;4925634;29;20294;-77
2022/08/05 15:01:38;;;;;;;3.30;3.00;;;;;;;;;;4918781;29;20222;-79